Terminal Aerodrome Forecast
Issued by NWS

Home | Current Version | Previous Version | Text Only | Print | Product List | Glossary On
Versions: 1 2 3 4 5 6 7 8 9 10 11 12 13 14 15 16 17 18 19 20 21 22 23 24 25 26 27 28 29 30 31 32 33 34 35 36 37 38 39 40 41 42 43 44 45 46 47 48 49 50
000
FTUS42 KMFL 300225 AAB
TAFOPF
TAF AMD
KOPF 300225Z 3002/3024 11015KT P6SM SHRA VCTS SCT027CB BKN035
      BKN200
      TEMPO 3002/3003 VRB10G20KT 4SM TSRA BKN025CB BKN040
     FM300300 09015KT P6SM VCSH SCT025 SCT060 BKN250
     FM300600 11012KT P6SM SHRA VCTS SCT030CB BKN060 BKN200
     FM301400 15020KT P6SM SHRA VCTS SCT025CB BKN050=

USA.gov is the U.S. government's official web portal to all federal, state and local government web resources and services.